createdAt,value
2022-10-20T00:02:08.615Z,3.30
2022-10-20T00:04:39.010Z,5.83
2022-10-20T00:07:09.624Z,4.77
2022-10-20T00:09:40.381Z,3.90
2022-10-20T00:12:10.892Z,5.13
2022-10-20T00:14:41.218Z,3.00
2022-10-20T00:17:11.523Z,5.53
2022-10-20T00:19:41.980Z,3.30
2022-10-20T00:22:12.342Z,6.65
2022-10-20T00:24:43.298Z,5.40
2022-10-20T00:27:13.691Z,3.63
2022-10-20T00:29:44.003Z,5.17
2022-10-20T00:32:14.669Z,4.50
2022-10-20T00:34:45.004Z,4.47
2022-10-20T00:37:15.333Z,5.33
2022-10-20T00:39:45.672Z,4.33
2022-10-20T00:42:18.045Z,4.57
2022-10-20T00:45:01.121Z,3.57
2022-10-20T00:47:39.893Z,3.93
2022-10-20T00:50:16.214Z,3.97
2022-10-20T00:52:48.631Z,4.27
2022-10-20T00:55:22.336Z,4.97
2022-10-20T00:57:58.074Z,3.22
2022-10-20T01:00:29.198Z,4.30
2022-10-20T01:03:02.460Z,4.03
2022-10-20T01:05:32.855Z,4.27
2022-10-20T01:08:03.314Z,5.10
2022-10-20T01:10:36.841Z,5.27
2022-10-20T01:13:18.443Z,3.13
2022-10-20T01:15:57.857Z,4.73
2022-10-20T01:18:39.878Z,3.63
2022-10-20T01:21:18.959Z,4.80
2022-10-20T01:24:24.116Z,4.67
2022-10-20T01:27:00.377Z,4.87
2022-10-20T01:29:36.336Z,3.07
2022-10-20T01:32:24.937Z,3.40
2022-10-20T01:35:07.240Z,3.67
2022-10-20T01:37:49.085Z,3.67
2022-10-20T01:40:25.021Z,3.93
2022-10-20T01:42:58.000Z,5.17
2022-10-20T01:45:31.303Z,3.20
2022-10-20T01:48:04.830Z,4.33
2022-10-20T01:50:36.540Z,3.33
2022-10-20T01:53:07.287Z,3.43
2022-10-20T01:55:39.903Z,3.97
2022-10-20T01:58:19.076Z,4.43
2022-10-20T02:00:53.014Z,3.27
2022-10-20T02:03:47.753Z,3.63
2022-10-20T02:06:23.922Z,2.73
2022-10-20T02:08:57.552Z,3.73
2022-10-20T02:11:51.923Z,4.33
2022-10-20T02:14:24.194Z,5.23
2022-10-20T02:17:03.239Z,5.10
2022-10-20T02:19:36.621Z,6.43
2022-10-20T02:22:09.466Z,5.73
2022-10-20T02:24:42.115Z,4.63
2022-10-20T02:27:18.038Z,3.20
2022-10-20T02:29:51.636Z,5.63
2022-10-20T02:32:23.562Z,3.20
2022-10-20T02:34:53.945Z,4.47
2022-10-20T02:37:24.387Z,3.77
2022-10-20T02:39:54.708Z,3.87
2022-10-20T02:42:25.197Z,3.13
2022-10-20T02:44:55.752Z,4.80
2022-10-20T02:47:26.133Z,5.63
2022-10-20T02:49:56.802Z,3.73
2022-10-20T02:52:27.193Z,3.27
2022-10-20T02:54:57.542Z,3.43
2022-10-20T02:57:28.028Z,4.27
2022-10-20T02:59:58.434Z,4.20
2022-10-20T03:02:28.795Z,4.30
2022-10-20T03:05:01.206Z,3.40
2022-10-20T03:07:33.046Z,4.67
2022-10-20T03:10:03.699Z,4.83
2022-10-20T03:12:34.086Z,3.87
2022-10-20T03:15:05.982Z,3.30
2022-10-20T03:17:36.651Z,3.37
2022-10-20T03:20:08.480Z,4.27
2022-10-20T03:22:38.890Z,3.43
2022-10-20T03:25:09.327Z,3.93
2022-10-20T03:27:39.783Z,3.37
2022-10-20T03:30:10.952Z,5.73
2022-10-20T03:32:41.355Z,3.90
2022-10-20T03:35:11.888Z,4.57
2022-10-20T03:37:42.223Z,4.97
2022-10-20T03:40:12.847Z,3.90
2022-10-20T03:42:43.158Z,3.67
2022-10-20T03:45:16.282Z,4.00
2022-10-20T03:47:45.553Z,4.10
2022-10-20T03:50:15.951Z,5.10
2022-10-20T03:52:50.931Z,3.10
2022-10-20T03:55:21.285Z,3.43
2022-10-20T03:57:51.702Z,5.83
2022-10-20T04:00:22.243Z,4.20
2022-10-20T04:02:53.110Z,5.20
2022-10-20T04:05:23.637Z,4.23
2022-10-20T04:07:54.000Z,3.87
2022-10-20T04:10:24.484Z,4.13
2022-10-20T04:12:56.454Z,4.97
2022-10-20T04:15:26.985Z,4.10
2022-10-20T04:17:57.577Z,4.87
2022-10-20T04:20:28.131Z,5.93
2022-10-20T04:22:58.653Z,5.93
2022-10-20T04:25:28.948Z,6.27
2022-10-20T04:28:00.573Z,4.00
2022-10-20T04:30:30.920Z,3.93
2022-10-20T04:33:01.238Z,5.63
2022-10-20T04:35:31.606Z,5.60
2022-10-20T04:38:02.185Z,6.50
2022-10-20T04:40:32.664Z,7.07
2022-10-20T04:43:03.637Z,7.40
2022-10-20T04:45:33.978Z,5.00
2022-10-20T04:48:06.195Z,5.90
2022-10-20T04:50:36.567Z,4.20
2022-10-20T04:53:07.695Z,6.10
2022-10-20T04:55:38.277Z,7.13
2022-10-20T04:58:08.757Z,6.43
2022-10-20T05:00:39.392Z,5.53
2022-10-20T05:05:40.085Z,5.03
2022-10-20T05:08:10.475Z,7.67
2022-10-20T05:10:40.844Z,4.90
2022-10-20T05:13:11.568Z,6.00
2022-10-20T05:15:41.883Z,4.70
2022-10-20T05:18:12.271Z,5.00
2022-10-20T05:21:07.279Z,6.63
2022-10-20T05:23:14.807Z,5.67
2022-10-20T05:25:45.182Z,7.27
2022-10-20T05:28:15.746Z,4.80
2022-10-20T05:30:46.155Z,6.70
2022-10-20T05:33:16.557Z,6.23
2022-10-20T05:35:46.960Z,6.53
2022-10-20T05:38:17.444Z,6.80
2022-10-20T05:40:47.813Z,5.42
2022-10-20T05:43:18.345Z,7.27
2022-10-20T05:45:51.760Z,6.67
2022-10-20T05:48:22.206Z,8.10
2022-10-20T05:50:52.572Z,6.03
2022-10-20T05:53:22.965Z,6.40
2022-10-20T05:55:53.342Z,6.47
2022-10-20T05:58:23.730Z,7.70
2022-10-20T06:00:54.030Z,6.73
2022-10-20T06:03:27.500Z,6.73
2022-10-20T06:06:00.813Z,6.45
2022-10-20T06:08:33.487Z,10.63
2022-10-20T06:11:06.924Z,6.93
2022-10-20T06:13:37.587Z,8.83
2022-10-20T06:16:11.116Z,6.27
2022-10-20T06:18:43.511Z,7.90
2022-10-20T06:21:17.436Z,8.53
2022-10-20T06:23:48.311Z,17.43
2022-10-20T06:26:21.545Z,10.77
2022-10-20T06:29:02.760Z,9.47
2022-10-20T06:31:31.734Z,11.07
2022-10-20T06:34:04.195Z,7.17
2022-10-20T06:36:37.615Z,9.53
2022-10-20T06:39:09.750Z,8.27
2022-10-20T06:41:40.671Z,9.00
2022-10-20T06:44:11.087Z,10.30
2022-10-20T06:46:41.406Z,29.27
2022-10-20T06:49:12.756Z,9.77
2022-10-20T06:51:43.148Z,10.37
2022-10-20T06:54:36.893Z,8.30
2022-10-20T06:57:07.284Z,9.63
2022-10-20T06:59:38.749Z,10.07
2022-10-20T07:02:12.327Z,7.03
2022-10-20T07:04:42.823Z,8.87
2022-10-20T07:07:13.195Z,8.97
2022-10-20T07:09:43.435Z,7.80
2022-10-20T07:12:13.879Z,12.33
2022-10-20T07:14:44.177Z,9.40
2022-10-20T07:17:14.712Z,9.93
2022-10-20T07:19:45.191Z,9.23
2022-10-20T07:22:15.514Z,12.13
2022-10-20T07:24:45.899Z,9.07
2022-10-20T07:27:16.243Z,9.37
2022-10-20T07:29:46.715Z,9.63
2022-10-20T07:32:17.174Z,8.47
2022-10-20T07:34:47.639Z,10.15
2022-10-20T07:37:17.997Z,8.83
2022-10-20T07:39:48.388Z,7.80
2022-10-20T07:42:18.749Z,8.63
2022-10-20T07:44:48.958Z,7.90
2022-10-20T07:47:19.222Z,8.47
2022-10-20T07:49:49.583Z,8.40
2022-10-20T07:52:19.983Z,8.87
2022-10-20T07:54:50.305Z,9.10
2022-10-20T07:57:20.667Z,8.00
2022-10-20T07:59:50.998Z,7.23
2022-10-20T08:02:21.395Z,7.13
2022-10-20T08:04:52.418Z,6.60
2022-10-20T08:07:22.652Z,8.93
2022-10-20T08:09:53.039Z,10.00
2022-10-20T08:12:23.421Z,10.63
2022-10-20T08:14:56.534Z,9.50
2022-10-20T08:17:27.586Z,7.20
2022-10-20T08:22:47.364Z,7.12
2022-10-20T08:25:18.382Z,7.13
2022-10-20T08:27:48.774Z,7.53
2022-10-20T08:30:23.980Z,9.83
2022-10-20T08:32:54.763Z,7.05
2022-10-20T08:35:26.051Z,7.15
2022-10-20T08:37:58.078Z,9.63
2022-10-20T08:40:31.116Z,7.00
2022-10-20T08:43:01.795Z,8.23
2022-10-20T08:45:37.321Z,12.82
2022-10-20T08:48:04.447Z,9.73
2022-10-20T08:50:35.637Z,6.80
2022-10-20T08:53:06.122Z,8.57
2022-10-20T08:55:37.099Z,6.75
2022-10-20T08:58:10.504Z,8.63
2022-10-20T09:00:41.904Z,6.97
2022-10-20T09:03:18.504Z,5.47
2022-10-20T09:05:51.959Z,8.00
2022-10-20T09:08:24.657Z,8.50
2022-10-20T09:10:56.279Z,5.83
2022-10-20T09:13:28.997Z,7.70
2022-10-20T09:16:22.119Z,6.28
2022-10-20T09:18:47.574Z,5.20
2022-10-20T09:21:22.869Z,7.92
2022-10-20T09:23:56.251Z,5.83
2022-10-20T09:26:57.666Z,8.98
2022-10-20T09:29:15.501Z,6.33
2022-10-20T09:31:52.196Z,6.15
2022-10-20T09:34:34.270Z,4.87
2022-10-20T09:37:10.802Z,5.92
2022-10-20T09:39:44.219Z,4.80
2022-10-20T09:42:23.314Z,6.83
2022-10-20T09:45:22.977Z,6.50
2022-10-20T09:47:56.497Z,6.67
2022-10-20T09:50:29.890Z,7.75
2022-10-20T09:53:03.607Z,5.30
2022-10-20T09:55:41.790Z,5.12
2022-10-20T09:58:17.866Z,6.10
2022-10-20T10:00:51.432Z,5.72
2022-10-20T10:03:24.203Z,7.15
2022-10-20T10:06:01.395Z,5.55
2022-10-20T10:08:43.962Z,5.05
2022-10-20T10:11:17.511Z,7.83
2022-10-20T10:13:51.065Z,7.70
2022-10-20T10:16:25.442Z,8.90
2022-10-20T10:19:01.951Z,8.25
2022-10-20T10:21:44.678Z,6.17
2022-10-20T10:24:29.808Z,6.33
2022-10-20T10:27:02.112Z,8.18
2022-10-20T10:29:36.960Z,6.70
2022-10-20T10:32:25.772Z,6.75
2022-10-20T10:35:26.121Z,4.25
2022-10-20T10:37:58.157Z,4.50
2022-10-20T10:40:54.021Z,6.00
2022-10-20T10:43:59.252Z,6.50
2022-10-20T10:46:36.815Z,6.15
2022-10-20T10:49:12.938Z,8.40
2022-10-20T10:51:49.175Z,6.70
2022-10-20T10:54:44.400Z,5.10
2022-10-20T10:57:17.932Z,4.03
2022-10-20T10:59:50.765Z,5.75
2022-10-20T11:02:27.046Z,3.40
2022-10-20T11:08:10.944Z,5.12
2022-10-20T11:10:46.881Z,6.25
2022-10-20T11:13:29.138Z,8.25
2022-10-20T11:16:10.832Z,4.72
2022-10-20T11:19:02.459Z,5.20
2022-10-20T11:21:41.774Z,5.15
2022-10-20T11:24:37.543Z,3.92
2022-10-20T11:27:23.113Z,5.12
2022-10-20T11:30:16.501Z,4.22
2022-10-20T11:33:01.742Z,4.37
2022-10-20T11:35:47.425Z,3.80
2022-10-20T11:38:40.242Z,3.47
2022-10-20T11:41:22.573Z,5.00
2022-10-20T11:44:05.084Z,4.22
2022-10-20T11:46:56.696Z,6.40
2022-10-20T11:49:27.894Z,3.95
2022-10-20T11:52:07.181Z,4.05
2022-10-20T11:54:40.678Z,3.33
2022-10-20T11:57:30.869Z,3.45
2022-10-20T12:00:29.797Z,2.72
2022-10-20T12:03:08.869Z,2.83
2022-10-20T12:05:57.375Z,3.50
2022-10-20T12:08:59.827Z,3.75
2022-10-20T12:11:39.299Z,2.95
2022-10-20T12:14:15.272Z,3.58
2022-10-20T12:17:00.679Z,2.83
2022-10-20T12:19:35.886Z,3.20
2022-10-20T12:22:18.327Z,5.35
2022-10-20T12:24:54.707Z,3.00
2022-10-20T12:27:29.914Z,4.78
2022-10-20T12:30:06.184Z,10.00
2022-10-20T12:32:40.092Z,4.53
2022-10-20T12:35:16.491Z,4.05
2022-10-20T12:38:05.447Z,2.90
2022-10-20T12:40:44.560Z,4.08
2022-10-20T12:43:27.241Z,3.87
2022-10-20T12:46:06.218Z,3.52
2022-10-20T12:48:39.693Z,3.90
2022-10-20T12:51:15.669Z,2.98
2022-10-20T12:53:49.418Z,4.37
2022-10-20T12:56:22.135Z,3.92
2022-10-20T12:59:10.942Z,4.37
2022-10-20T13:02:14.675Z,3.60
2022-10-20T13:05:09.187Z,3.62
2022-10-20T13:07:55.850Z,3.95
2022-10-20T13:10:29.524Z,4.65
2022-10-20T13:13:05.907Z,3.60
2022-10-20T13:15:39.343Z,3.08
2022-10-20T13:18:19.866Z,4.72
2022-10-20T13:20:56.070Z,3.62
2022-10-20T13:23:40.907Z,6.08
2022-10-20T13:26:40.176Z,4.78
2022-10-20T13:29:22.282Z,3.22
2022-10-20T13:32:03.781Z,3.47
2022-10-20T13:34:42.536Z,3.02
2022-10-20T13:37:35.569Z,3.47
2022-10-20T13:40:14.936Z,3.42
2022-10-20T13:43:04.712Z,3.60
2022-10-20T13:45:38.180Z,4.40
2022-10-20T13:48:14.647Z,3.35
2022-10-20T13:50:49.486Z,3.22
2022-10-20T13:53:40.751Z,5.87
2022-10-20T13:56:20.142Z,4.50
2022-10-20T13:59:05.741Z,4.95
2022-10-20T14:01:36.820Z,4.60
2022-10-20T14:04:28.452Z,3.85
2022-10-20T14:07:04.401Z,5.55
2022-10-20T14:09:34.810Z,3.67
2022-10-20T14:12:11.379Z,3.27
2022-10-20T14:14:44.059Z,5.58
2022-10-20T14:17:20.341Z,3.83
2022-10-20T14:19:51.460Z,3.83
2022-10-20T14:22:25.186Z,3.17
2022-10-20T14:24:59.872Z,5.10
2022-10-20T14:27:33.774Z,3.27
2022-10-20T14:30:08.767Z,3.80
2022-10-20T14:32:41.046Z,3.45
2022-10-20T14:35:22.394Z,3.60
2022-10-20T14:38:04.520Z,3.65
2022-10-20T14:40:37.345Z,6.67
2022-10-20T14:43:10.169Z,3.87
2022-10-20T14:45:40.642Z,5.30
2022-10-20T14:48:14.119Z,3.30
2022-10-20T14:50:44.418Z,3.87
2022-10-20T14:53:27.239Z,4.40
2022-10-20T14:56:02.585Z,6.85
2022-10-20T14:58:41.669Z,4.60
2022-10-20T15:01:21.840Z,3.67
2022-10-20T15:04:26.554Z,4.28
2022-10-20T15:07:08.367Z,4.05
2022-10-20T15:09:53.289Z,6.35
2022-10-20T15:12:29.721Z,3.67
2022-10-20T15:15:09.081Z,3.20
2022-10-20T15:17:48.108Z,3.52
2022-10-20T15:20:37.465Z,4.20
2022-10-20T15:23:12.919Z,4.45
2022-10-20T15:26:02.774Z,4.05
2022-10-20T15:28:38.884Z,4.15
2022-10-20T15:31:14.887Z,4.70
2022-10-20T15:33:45.199Z,6.20
2022-10-20T15:36:25.164Z,4.40
2022-10-20T15:38:56.483Z,4.08
2022-10-20T15:41:30.011Z,5.65
2022-10-20T15:44:12.347Z,4.10
2022-10-20T15:46:44.935Z,4.75
2022-10-20T15:49:15.833Z,5.67
2022-10-20T15:51:48.026Z,5.10
2022-10-20T15:54:21.401Z,5.17
2022-10-20T15:56:51.947Z,5.30
2022-10-20T15:59:22.333Z,5.57
2022-10-20T16:01:52.703Z,5.97
2022-10-20T16:04:27.279Z,5.72
2022-10-20T16:07:01.778Z,7.33
2022-10-20T16:09:29.753Z,6.58
2022-10-20T16:12:00.199Z,6.20
2022-10-20T16:14:30.598Z,6.28
2022-10-20T16:17:00.967Z,6.47
2022-10-20T16:19:32.268Z,6.80
2022-10-20T16:22:02.641Z,5.20
2022-10-20T16:24:33.167Z,5.80
2022-10-20T16:27:05.172Z,6.10
2022-10-20T16:29:35.591Z,7.45
2022-10-20T16:32:06.028Z,7.83
2022-10-20T16:34:36.364Z,5.53
2022-10-20T16:37:06.672Z,6.92
2022-10-20T16:39:37.043Z,7.67
2022-10-20T16:42:07.599Z,7.28
2022-10-20T16:44:38.179Z,8.13
2022-10-20T16:47:08.549Z,5.40
2022-10-20T16:49:39.168Z,7.65
2022-10-20T16:52:09.560Z,9.18
2022-10-20T16:57:11.404Z,10.38
2022-10-20T16:59:43.155Z,6.75
2022-10-20T17:02:13.838Z,6.78
2022-10-20T17:04:45.963Z,8.75
2022-10-20T17:07:16.918Z,6.35
2022-10-20T17:09:47.300Z,6.83
2022-10-20T17:12:18.338Z,7.08
2022-10-20T17:14:48.728Z,7.37
2022-10-20T17:17:19.096Z,8.60
2022-10-20T17:19:49.484Z,5.67
2022-10-20T17:22:23.034Z,8.55
2022-10-20T17:24:53.528Z,7.70
2022-10-20T17:27:23.926Z,7.17
2022-10-20T17:29:54.359Z,6.70
2022-10-20T17:32:24.705Z,7.90
2022-10-20T17:34:55.079Z,9.33
2022-10-20T17:37:25.613Z,7.70
2022-10-20T17:39:56.002Z,7.58
2022-10-20T17:42:26.344Z,7.83
2022-10-20T17:44:56.709Z,8.35
2022-10-20T17:47:27.072Z,10.48
2022-10-20T17:49:57.509Z,7.00
2022-10-20T17:52:30.202Z,7.55
2022-10-20T17:55:00.671Z,6.37
2022-10-20T17:57:31.614Z,8.00
2022-10-20T18:00:05.039Z,7.28
2022-10-20T18:02:34.197Z,7.65
2022-10-20T18:05:05.006Z,6.90
2022-10-20T18:07:35.503Z,8.88
2022-10-20T18:10:06.451Z,8.15
2022-10-20T18:12:39.635Z,7.62
2022-10-20T18:15:10.370Z,8.85
2022-10-20T18:17:43.248Z,10.00
2022-10-20T18:20:13.425Z,11.30
2022-10-20T18:22:45.537Z,10.30
2022-10-20T18:25:16.071Z,8.57
2022-10-20T18:27:48.020Z,9.70
2022-10-20T18:30:18.414Z,8.93
2022-10-20T18:32:48.859Z,10.37
2022-10-20T18:37:51.342Z,12.90
2022-10-20T18:40:21.942Z,8.77
2022-10-20T18:42:52.463Z,9.53
2022-10-20T18:45:25.218Z,9.57
2022-10-20T18:47:54.929Z,10.05
2022-10-20T18:50:25.274Z,9.30
2022-10-20T18:52:55.706Z,8.87
2022-10-20T18:55:26.175Z,8.95
2022-10-20T18:57:56.565Z,8.87
2022-10-20T19:00:30.048Z,7.63
2022-10-20T19:03:05.009Z,9.63
2022-10-20T19:05:37.110Z,11.00
2022-10-20T19:08:07.489Z,8.67
2022-10-20T19:10:37.829Z,9.03
2022-10-20T19:13:08.298Z,9.85
2022-10-20T19:15:40.629Z,8.63
2022-10-20T19:18:11.165Z,9.03
2022-10-20T19:20:41.620Z,7.15
2022-10-20T19:23:12.325Z,7.70
2022-10-20T19:25:42.659Z,7.70
2022-10-20T19:28:13.286Z,6.58
2022-10-20T19:30:47.424Z,9.00
2022-10-20T19:33:17.742Z,7.50
2022-10-20T19:35:50.740Z,7.47
2022-10-20T19:38:21.582Z,7.67
2022-10-20T19:40:51.881Z,7.30
2022-10-20T19:43:22.460Z,8.30
2022-10-20T19:45:52.954Z,10.35
2022-10-20T19:48:23.499Z,9.28
2022-10-20T19:50:53.794Z,10.58
2022-10-20T19:53:24.113Z,7.83
2022-10-20T19:55:54.999Z,8.85
2022-10-20T19:58:25.390Z,7.97
2022-10-20T20:00:58.663Z,7.73
2022-10-20T20:03:29.233Z,9.23
2022-10-20T20:06:04.863Z,9.85
2022-10-20T20:08:36.222Z,6.93
2022-10-20T20:11:06.992Z,8.17
2022-10-20T20:13:37.627Z,7.77
2022-10-20T20:16:09.362Z,9.03
2022-10-20T20:18:39.838Z,9.33
2022-10-20T20:21:10.806Z,7.35
2022-10-20T20:23:58.259Z,8.55
2022-10-20T20:26:16.124Z,7.77
2022-10-20T20:28:46.020Z,7.50
2022-10-20T20:31:16.370Z,9.73
2022-10-20T20:33:46.823Z,9.47
2022-10-20T20:36:17.651Z,7.23
2022-10-20T20:38:49.250Z,9.63
2022-10-20T20:41:21.075Z,6.90
2022-10-20T20:43:51.573Z,9.23
2022-10-20T20:46:24.307Z,8.63
2022-10-20T20:48:54.704Z,7.62
2022-10-20T20:51:29.031Z,8.08
2022-10-20T20:53:59.468Z,7.40
2022-10-20T20:56:29.779Z,9.10
2022-10-20T20:59:00.205Z,10.63
2022-10-20T21:01:32.109Z,9.00
2022-10-20T21:04:05.218Z,8.77
2022-10-20T21:07:00.016Z,9.00
2022-10-20T21:09:11.369Z,8.27
2022-10-20T21:11:42.933Z,9.67
2022-10-20T21:14:13.385Z,7.35
2022-10-20T21:16:43.763Z,8.17
2022-10-20T21:19:15.291Z,8.43
2022-10-20T21:21:53.404Z,10.75
2022-10-20T21:24:26.181Z,9.10
2022-10-20T21:26:56.808Z,9.00
2022-10-20T21:29:27.271Z,9.37
2022-10-20T21:31:59.631Z,10.03
2022-10-20T21:34:30.121Z,10.10
2022-10-20T21:37:00.694Z,7.60
2022-10-20T21:42:01.500Z,7.85
2022-10-20T21:44:32.050Z,11.00
2022-10-20T21:47:02.358Z,8.73
2022-10-20T21:49:33.843Z,9.80
2022-10-20T21:52:04.329Z,7.75
2022-10-20T21:54:34.770Z,8.43
2022-10-20T21:57:05.383Z,8.85
2022-10-20T21:59:35.674Z,9.00
2022-10-20T22:02:07.618Z,8.30
2022-10-20T22:04:37.991Z,7.87
2022-10-20T22:07:08.369Z,7.83
2022-10-20T22:09:38.608Z,6.80
2022-10-20T22:12:08.909Z,8.60
2022-10-20T22:14:40.691Z,9.00
2022-10-20T22:17:11.326Z,8.17
2022-10-20T22:19:41.853Z,8.28
2022-10-20T22:22:12.352Z,7.93
2022-10-20T22:24:42.788Z,8.40
2022-10-20T22:27:25.072Z,10.57
2022-10-20T22:29:45.286Z,8.77
2022-10-20T22:32:15.665Z,9.08
2022-10-20T22:34:46.015Z,7.03
2022-10-20T22:37:16.345Z,9.67
2022-10-20T22:39:46.789Z,8.03
2022-10-20T22:42:18.368Z,9.90
2022-10-20T22:44:49.199Z,8.60
2022-10-20T22:47:21.145Z,9.70
2022-10-20T22:49:51.626Z,8.60
2022-10-20T22:52:22.114Z,9.87
2022-10-20T22:54:52.352Z,10.87
2022-10-20T22:57:22.756Z,12.07
2022-10-20T22:59:53.248Z,10.00
2022-10-20T23:02:23.762Z,10.03
2022-10-20T23:04:54.208Z,10.05
2022-10-20T23:07:24.935Z,14.27
2022-10-20T23:09:55.483Z,9.30
2022-10-20T23:12:25.967Z,10.17
2022-10-20T23:14:56.546Z,10.83
2022-10-20T23:17:27.597Z,14.50
2022-10-20T23:19:57.977Z,12.83
2022-10-20T23:22:28.474Z,11.23
2022-10-20T23:24:58.762Z,11.33
2022-10-20T23:27:29.159Z,9.43
2022-10-20T23:29:59.488Z,11.23
2022-10-20T23:32:30.343Z,10.80
2022-10-20T23:35:00.713Z,10.03
2022-10-20T23:37:31.185Z,10.70
2022-10-20T23:40:01.562Z,11.10
2022-10-20T23:42:31.893Z,12.27
2022-10-20T23:45:02.668Z,9.93
2022-10-20T23:47:33.405Z,9.83
2022-10-20T23:50:03.833Z,9.90
2022-10-20T23:52:34.262Z,8.93
2022-10-20T23:55:05.723Z,10.03
2022-10-20T23:57:36.554Z,10.03
